• Join FlightAware (Why Join?)
  • Login
  • US Flag 
07:26AM EDT


 

Airport Tracker/Info


-or-


 

Live Flight TrackerFlight Track Log ✈ RPA4907 ✈ 10-Jul-2013 ✈ KBWI - KEWR

Flight Track Log - Related Links

Times and Time Zones

All times are in EDT time to prevent confusion due to time zone crossing. See the RPA4907 flight status page for this flight to view local times or setup timezone preferences in your user account.

Time Position Orientation Groundspeed Altitude Reporting Facility
EDT Latitude Longitude Course Direction KTS MPH feet Rate Location/Type
02:37PM 39.2167 -76.7000 43° Northeast 229 264 2,900  Level Potomac TRACON
02:38PM 39.1500 -76.2613 90° East  Level FlightAware Approximate
02:38PM 39.2167 -76.6167 90° East 253 291 4,800  Level Potomac TRACON
02:39PM 39.1999 -76.1501 46° Northeast  Level FlightAware Approximate
02:39PM 39.1833 -76.5333 117° Southeast 263 303 6,600  Level Potomac TRACON
02:40PM 39.2799 -76.0601 46° Northeast  Level FlightAware Approximate
02:40PM 39.1667 -76.4333 102° East 271 312 8,300  Level Potomac TRACON
02:41PM 39.3576 -75.9662 42° Northeast  Level FlightAware Approximate
02:41PM 39.1667 -76.3333 90° East 278 320 10,000  Level Potomac TRACON
02:42PM 39.4362 -75.8733 43° Northeast  Level FlightAware Approximate
02:42PM 39.1667 -76.2333 90° East 290 334 11,000  Level Potomac TRACON
02:43PM 39.2333 -76.1667 38° Northeast 323 372 11,000  Level Potomac TRACON
02:44PM 39.3000 -76.0833 44° Northeast 351 404 11,000  Level Potomac TRACON
02:44PM 39.3500 -76.0167 46° Northeast 351 404 11,000  Level Philadelphia TRACON
02:45PM 39.4333 -75.9333 38° Northeast 351 404 11,000  Level Philadelphia TRACON
02:46PM 39.5000 -75.8333 49° Northeast 351 404 11,000  Level Philadelphia TRACON
02:47PM 39.5500 -75.7333 57° Northeast 361 415 11,000  Level Philadelphia TRACON
02:48PM 39.6000 -75.6000 64° Northeast 362 417 11,000  Level Philadelphia TRACON
02:49PM 39.6500 -75.4833 61° Northeast 362 417 11,000  Level Philadelphia TRACON
02:50PM 39.7000 -75.3667 61° Northeast 363 418 11,000  Level Philadelphia TRACON
02:51PM 39.7500 -75.2500 61° Northeast 365 420 11,000  Level Philadelphia TRACON
02:52PM 39.7833 -75.1500 67° East 364 419 11,000 -300 Level Philadelphia TRACON
02:53PM 39.8333 -75.0500 57° Northeast 362 417 10,500 -600 Descending Philadelphia TRACON
02:54PM 39.9000 -74.9333 53° Northeast 324 373 9,800 -960 Descending Philadelphia TRACON
02:55PM 39.9500 -74.8500 52° Northeast 309 356 8,400 -1,200 Descending Philadelphia TRACON
02:57PM 40.0333 -74.7500 43° Northeast 307 353 7,100 -600 Descending New York TRACON
02:58PM 40.0833 -74.6667 52° Northeast 293 337 7,100 -60 Level New York TRACON
02:59PM 40.1333 -74.6000 46° Northeast 294 338 7,000  Descending New York TRACON
03:00PM 40.2167 -74.5833 North 283 326 7,100 -360 Climbing New York TRACON
03:01PM 40.2833 -74.5833 360° North 285 328 6,400 -600 Descending New York TRACON
03:02PM 40.3667 -74.5833 360° North 276 318 6,000 -180 Descending New York TRACON
03:03PM 40.4333 -74.5833 360° North 270 311 6,100  Climbing New York TRACON
03:04PM 40.5167 -74.5833 360° North 279 321 6,100  Level New York TRACON
03:05PM 40.6000 -74.5833 360° North 275 316 6,100  Level New York TRACON
03:06PM 40.6667 -74.5667 11° North 277 319 6,100  Level New York TRACON
03:07PM 40.7500 -74.5500 North 286 329 6,100 -240 Level New York TRACON
03:08PM 40.8167 -74.5000 30° Northeast 284 327 5,700 -540 Descending New York TRACON
03:09PM 40.9000 -74.4667 17° North 278 320 5,100 -300 Descending New York TRACON
03:10PM 40.9500 -74.3833 52° Northeast 291 335 5,100  Level New York TRACON
03:11PM 40.9667 -74.2833 78° East 290 334 5,100 -420 Level New York TRACON
03:12PM 40.9833 -74.2000 75° East 262 302 4,300 -600 Descending New York TRACON
03:13PM 40.9500 -74.1167 118° Southeast 253 291 3,900 -600 Descending New York TRACON
03:14PM 40.9000 -74.0833 153° Southeast 234 269 3,100 -480 Descending New York TRACON
03:15PM 40.8333 -74.0667 169° South 199 229 3,000 -540 Descending New York TRACON
03:16PM 40.8000 -74.1000 217° Southwest 170 196 2,100 -900 Descending New York TRACON